sensor_id;sensor_type;location;lat;lon;timestamp;P1;durP1;ratioP1;P2;durP2;ratioP2
16181;SDS011;8197;51.664;7.114;2023-12-28T00:02:00;15.43;;;2.43;;
16181;SDS011;8197;51.664;7.114;2023-12-28T00:07:03;15.47;;;2.30;;
16181;SDS011;8197;51.664;7.114;2023-12-28T00:12:08;16.23;;;2.37;;
16181;SDS011;8197;51.664;7.114;2023-12-28T00:17:11;15.27;;;2.40;;
16181;SDS011;8197;51.664;7.114;2023-12-28T00:22:15;15.30;;;2.40;;
16181;SDS011;8197;51.664;7.114;2023-12-28T00:27:19;15.27;;;2.50;;
16181;SDS011;8197;51.664;7.114;2023-12-28T00:32:22;14.80;;;2.40;;
16181;SDS011;8197;51.664;7.114;2023-12-28T00:37:25;15.47;;;2.60;;
16181;SDS011;8197;51.664;7.114;2023-12-28T00:42:29;17.67;;;3.00;;
16181;SDS011;8197;51.664;7.114;2023-12-28T00:47:32;14.70;;;2.20;;
16181;SDS011;8197;51.664;7.114;2023-12-28T00:52:35;29.10;;;2.87;;
16181;SDS011;8197;51.664;7.114;2023-12-28T00:57:39;14.90;;;2.40;;
16181;SDS011;8197;51.664;7.114;2023-12-28T01:02:42;15.17;;;2.00;;
16181;SDS011;8197;51.664;7.114;2023-12-28T01:07:48;15.70;;;2.27;;
16181;SDS011;8197;51.664;7.114;2023-12-28T01:12:52;14.87;;;2.20;;
16181;SDS011;8197;51.664;7.114;2023-12-28T01:17:56;15.00;;;2.07;;
16181;SDS011;8197;51.664;7.114;2023-12-28T01:22:59;15.63;;;2.00;;
16181;SDS011;8197;51.664;7.114;2023-12-28T01:28:04;14.77;;;2.27;;
16181;SDS011;8197;51.664;7.114;2023-12-28T01:33:07;16.10;;;2.17;;
16181;SDS011;8197;51.664;7.114;2023-12-28T01:38:11;15.90;;;2.03;;
16181;SDS011;8197;51.664;7.114;2023-12-28T01:43:15;17.97;;;2.13;;
16181;SDS011;8197;51.664;7.114;2023-12-28T01:48:18;16.37;;;2.63;;
16181;SDS011;8197;51.664;7.114;2023-12-28T01:53:21;17.13;;;2.10;;
16181;SDS011;8197;51.664;7.114;2023-12-28T01:58:26;14.90;;;2.40;;
16181;SDS011;8197;51.664;7.114;2023-12-28T02:03:30;14.93;;;2.17;;
16181;SDS011;8197;51.664;7.114;2023-12-28T02:08:33;16.33;;;1.70;;
16181;SDS011;8197;51.664;7.114;2023-12-28T02:13:38;14.10;;;1.70;;
16181;SDS011;8197;51.664;7.114;2023-12-28T02:18:42;16.10;;;2.00;;
16181;SDS011;8197;51.664;7.114;2023-12-28T02:23:46;14.60;;;2.10;;
16181;SDS011;8197;51.664;7.114;2023-12-28T02:28:51;14.80;;;1.97;;
16181;SDS011;8197;51.664;7.114;2023-12-28T02:33:57;17.17;;;1.90;;
16181;SDS011;8197;51.664;7.114;2023-12-28T02:39:07;15.77;;;1.93;;
16181;SDS011;8197;51.664;7.114;2023-12-28T02:44:13;14.53;;;2.20;;
16181;SDS011;8197;51.664;7.114;2023-12-28T02:49:16;16.07;;;2.40;;
16181;SDS011;8197;51.664;7.114;2023-12-28T02:54:19;15.73;;;2.43;;
16181;SDS011;8197;51.664;7.114;2023-12-28T02:59:23;14.83;;;2.17;;
16181;SDS011;8197;51.664;7.114;2023-12-28T03:04:26;15.70;;;1.90;;
16181;SDS011;8197;51.664;7.114;2023-12-28T03:09:29;13.70;;;1.80;;
16181;SDS011;8197;51.664;7.114;2023-12-28T03:14:33;15.83;;;2.23;;
16181;SDS011;8197;51.664;7.114;2023-12-28T03:19:36;16.00;;;2.50;;
16181;SDS011;8197;51.664;7.114;2023-12-28T03:24:39;14.53;;;2.13;;
16181;SDS011;8197;51.664;7.114;2023-12-28T03:29:43;14.30;;;1.90;;
16181;SDS011;8197;51.664;7.114;2023-12-28T03:34:47;18.60;;;2.10;;
16181;SDS011;8197;51.664;7.114;2023-12-28T03:39:50;15.17;;;2.10;;
16181;SDS011;8197;51.664;7.114;2023-12-28T03:44:54;14.90;;;2.00;;
16181;SDS011;8197;51.664;7.114;2023-12-28T03:49:58;16.03;;;2.20;;
16181;SDS011;8197;51.664;7.114;2023-12-28T03:55:01;17.40;;;2.90;;
16181;SDS011;8197;51.664;7.114;2023-12-28T04:00:06;18.43;;;2.97;;
16181;SDS011;8197;51.664;7.114;2023-12-28T04:05:10;16.80;;;2.30;;
16181;SDS011;8197;51.664;7.114;2023-12-28T04:10:13;16.57;;;2.47;;
16181;SDS011;8197;51.664;7.114;2023-12-28T04:15:20;14.10;;;2.07;;
16181;SDS011;8197;51.664;7.114;2023-12-28T04:20:23;16.20;;;2.10;;
16181;SDS011;8197;51.664;7.114;2023-12-28T04:25:26;16.40;;;2.30;;
16181;SDS011;8197;51.664;7.114;2023-12-28T04:30:30;14.87;;;2.30;;
16181;SDS011;8197;51.664;7.114;2023-12-28T04:35:33;15.00;;;1.93;;
16181;SDS011;8197;51.664;7.114;2023-12-28T04:40:36;14.23;;;2.10;;
16181;SDS011;8197;51.664;7.114;2023-12-28T04:45:40;18.13;;;2.00;;
16181;SDS011;8197;51.664;7.114;2023-12-28T04:50:43;19.43;;;2.27;;
16181;SDS011;8197;51.664;7.114;2023-12-28T04:55:46;14.07;;;2.00;;
16181;SDS011;8197;51.664;7.114;2023-12-28T05:00:50;14.63;;;2.10;;
16181;SDS011;8197;51.664;7.114;2023-12-28T05:05:53;17.20;;;2.60;;
16181;SDS011;8197;51.664;7.114;2023-12-28T05:10:56;17.17;;;1.97;;
16181;SDS011;8197;51.664;7.114;2023-12-28T05:16:00;24.53;;;3.07;;
16181;SDS011;8197;51.664;7.114;2023-12-28T05:21:03;16.70;;;2.27;;
16181;SDS011;8197;51.664;7.114;2023-12-28T05:26:07;16.27;;;2.10;;
16181;SDS011;8197;51.664;7.114;2023-12-28T05:31:11;14.30;;;1.93;;
16181;SDS011;8197;51.664;7.114;2023-12-28T05:36:15;17.93;;;2.37;;
16181;SDS011;8197;51.664;7.114;2023-12-28T05:41:18;20.87;;;2.53;;
16181;SDS011;8197;51.664;7.114;2023-12-28T05:46:22;14.70;;;1.70;;
16181;SDS011;8197;51.664;7.114;2023-12-28T05:51:25;16.67;;;2.03;;
16181;SDS011;8197;51.664;7.114;2023-12-28T05:56:28;19.70;;;1.83;;
16181;SDS011;8197;51.664;7.114;2023-12-28T06:01:32;17.53;;;2.80;;
16181;SDS011;8197;51.664;7.114;2023-12-28T06:06:43;16.07;;;2.13;;
16181;SDS011;8197;51.664;7.114;2023-12-28T06:11:46;17.80;;;2.27;;
16181;SDS011;8197;51.664;7.114;2023-12-28T06:16:50;17.23;;;2.23;;
16181;SDS011;8197;51.664;7.114;2023-12-28T06:21:53;18.00;;;2.00;;
16181;SDS011;8197;51.664;7.114;2023-12-28T06:26:56;18.50;;;2.20;;
16181;SDS011;8197;51.664;7.114;2023-12-28T06:32:00;15.30;;;1.83;;
16181;SDS011;8197;51.664;7.114;2023-12-28T06:37:03;16.77;;;1.97;;
16181;SDS011;8197;51.664;7.114;2023-12-28T06:42:06;15.70;;;2.03;;
16181;SDS011;8197;51.664;7.114;2023-12-28T06:47:11;18.07;;;2.40;;
16181;SDS011;8197;51.664;7.114;2023-12-28T06:52:14;17.53;;;1.90;;
16181;SDS011;8197;51.664;7.114;2023-12-28T06:57:17;18.97;;;2.50;;
16181;SDS011;8197;51.664;7.114;2023-12-28T07:02:21;17.70;;;2.30;;
16181;SDS011;8197;51.664;7.114;2023-12-28T07:07:25;16.67;;;1.70;;
16181;SDS011;8197;51.664;7.114;2023-12-28T07:12:28;20.23;;;2.90;;
16181;SDS011;8197;51.664;7.114;2023-12-28T07:17:32;20.07;;;2.80;;
16181;SDS011;8197;51.664;7.114;2023-12-28T07:22:35;21.20;;;2.10;;
16181;SDS011;8197;51.664;7.114;2023-12-28T07:27:38;20.43;;;2.60;;
16181;SDS011;8197;51.664;7.114;2023-12-28T07:32:43;15.17;;;1.73;;
16181;SDS011;8197;51.664;7.114;2023-12-28T07:37:47;18.23;;;2.63;;
16181;SDS011;8197;51.664;7.114;2023-12-28T07:42:50;19.43;;;2.30;;
16181;SDS011;8197;51.664;7.114;2023-12-28T07:47:55;15.90;;;1.93;;
16181;SDS011;8197;51.664;7.114;2023-12-28T07:52:59;21.67;;;2.47;;
16181;SDS011;8197;51.664;7.114;2023-12-28T07:58:02;17.43;;;2.40;;
16181;SDS011;8197;51.664;7.114;2023-12-28T08:03:07;20.80;;;2.70;;
16181;SDS011;8197;51.664;7.114;2023-12-28T08:08:10;24.93;;;2.60;;
16181;SDS011;8197;51.664;7.114;2023-12-28T08:13:13;23.03;;;2.60;;
16181;SDS011;8197;51.664;7.114;2023-12-28T08:18:20;19.87;;;2.43;;
16181;SDS011;8197;51.664;7.114;2023-12-28T08:23:23;22.37;;;3.33;;
16181;SDS011;8197;51.664;7.114;2023-12-28T08:28:26;20.57;;;2.40;;
16181;SDS011;8197;51.664;7.114;2023-12-28T08:33:30;26.20;;;2.93;;
16181;SDS011;8197;51.664;7.114;2023-12-28T08:38:33;19.80;;;2.33;;
16181;SDS011;8197;51.664;7.114;2023-12-28T08:43:36;24.03;;;3.50;;
16181;SDS011;8197;51.664;7.114;2023-12-28T08:48:41;21.03;;;2.60;;
16181;SDS011;8197;51.664;7.114;2023-12-28T08:53:44;27.10;;;3.00;;
16181;SDS011;8197;51.664;7.114;2023-12-28T08:58:48;18.57;;;2.17;;
16181;SDS011;8197;51.664;7.114;2023-12-28T09:03:54;19.63;;;2.50;;
16181;SDS011;8197;51.664;7.114;2023-12-28T09:08:57;24.37;;;2.87;;
16181;SDS011;8197;51.664;7.114;2023-12-28T09:14:00;28.10;;;2.33;;
16181;SDS011;8197;51.664;7.114;2023-12-28T09:19:04;25.80;;;2.40;;
16181;SDS011;8197;51.664;7.114;2023-12-28T09:24:08;21.30;;;2.43;;
16181;SDS011;8197;51.664;7.114;2023-12-28T09:29:10;21.20;;;2.73;;
16181;SDS011;8197;51.664;7.114;2023-12-28T09:34:15;26.33;;;3.23;;
16181;SDS011;8197;51.664;7.114;2023-12-28T09:39:18;24.40;;;2.93;;
16181;SDS011;8197;51.664;7.114;2023-12-28T09:44:23;24.80;;;2.67;;
16181;SDS011;8197;51.664;7.114;2023-12-28T09:49:29;20.60;;;2.70;;
16181;SDS011;8197;51.664;7.114;2023-12-28T09:54:34;23.23;;;2.70;;
16181;SDS011;8197;51.664;7.114;2023-12-28T09:59:37;26.40;;;3.30;;
16181;SDS011;8197;51.664;7.114;2023-12-28T10:04:43;22.73;;;3.50;;
16181;SDS011;8197;51.664;7.114;2023-12-28T10:09:46;26.10;;;2.80;;
16181;SDS011;8197;51.664;7.114;2023-12-28T10:14:50;21.97;;;2.70;;
16181;SDS011;8197;51.664;7.114;2023-12-28T10:19:54;22.50;;;3.33;;
16181;SDS011;8197;51.664;7.114;2023-12-28T10:25:05;23.37;;;2.90;;
16181;SDS011;8197;51.664;7.114;2023-12-28T10:30:08;23.83;;;2.47;;
16181;SDS011;8197;51.664;7.114;2023-12-28T10:35:14;21.77;;;2.33;;
16181;SDS011;8197;51.664;7.114;2023-12-28T10:40:18;25.67;;;2.80;;
16181;SDS011;8197;51.664;7.114;2023-12-28T10:45:26;25.50;;;3.43;;
16181;SDS011;8197;51.664;7.114;2023-12-28T10:50:34;23.97;;;3.20;;
16181;SDS011;8197;51.664;7.114;2023-12-28T10:55:45;22.50;;;3.10;;
16181;SDS011;8197;51.664;7.114;2023-12-28T11:00:56;22.80;;;2.80;;
16181;SDS011;8197;51.664;7.114;2023-12-28T11:06:06;24.10;;;2.47;;
16181;SDS011;8197;51.664;7.114;2023-12-28T11:11:10;24.70;;;3.47;;
16181;SDS011;8197;51.664;7.114;2023-12-28T11:16:15;25.40;;;3.40;;
16181;SDS011;8197;51.664;7.114;2023-12-28T11:21:20;25.37;;;2.83;;
16181;SDS011;8197;51.664;7.114;2023-12-28T11:26:24;29.90;;;3.40;;
16181;SDS011;8197;51.664;7.114;2023-12-28T11:31:28;24.77;;;3.60;;
16181;SDS011;8197;51.664;7.114;2023-12-28T11:36:39;22.17;;;2.77;;
16181;SDS011;8197;51.664;7.114;2023-12-28T11:41:58;30.80;;;3.40;;
16181;SDS011;8197;51.664;7.114;2023-12-28T11:47:10;29.27;;;3.10;;
16181;SDS011;8197;51.664;7.114;2023-12-28T11:52:23;23.37;;;2.40;;
16181;SDS011;8197;51.664;7.114;2023-12-28T11:57:27;28.60;;;3.13;;
16181;SDS011;8197;51.664;7.114;2023-12-28T12:02:30;22.17;;;2.87;;
16181;SDS011;8197;51.664;7.114;2023-12-28T12:07:34;25.87;;;3.10;;
16181;SDS011;8197;51.664;7.114;2023-12-28T12:12:38;21.63;;;3.23;;
16181;SDS011;8197;51.664;7.114;2023-12-28T12:17:41;23.63;;;2.70;;
16181;SDS011;8197;51.664;7.114;2023-12-28T12:22:45;21.60;;;2.67;;
16181;SDS011;8197;51.664;7.114;2023-12-28T12:27:49;24.50;;;4.13;;
16181;SDS011;8197;51.664;7.114;2023-12-28T12:32:52;22.00;;;3.00;;
16181;SDS011;8197;51.664;7.114;2023-12-28T12:37:56;29.50;;;3.30;;
16181;SDS011;8197;51.664;7.114;2023-12-28T12:42:59;27.93;;;2.93;;
16181;SDS011;8197;51.664;7.114;2023-12-28T12:48:03;24.90;;;3.50;;
16181;SDS011;8197;51.664;7.114;2023-12-28T12:53:09;26.77;;;3.57;;
16181;SDS011;8197;51.664;7.114;2023-12-28T12:58:12;20.73;;;3.20;;
16181;SDS011;8197;51.664;7.114;2023-12-28T13:03:19;28.60;;;3.30;;
16181;SDS011;8197;51.664;7.114;2023-12-28T13:08:23;23.47;;;3.57;;
16181;SDS011;8197;51.664;7.114;2023-12-28T13:13:26;21.93;;;3.00;;
16181;SDS011;8197;51.664;7.114;2023-12-28T13:18:29;27.53;;;3.20;;
16181;SDS011;8197;51.664;7.114;2023-12-28T13:23:35;31.27;;;4.10;;
16181;SDS011;8197;51.664;7.114;2023-12-28T13:28:38;21.40;;;3.20;;
16181;SDS011;8197;51.664;7.114;2023-12-28T13:33:40;26.70;;;3.40;;
16181;SDS011;8197;51.664;7.114;2023-12-28T13:38:45;26.93;;;3.40;;
16181;SDS011;8197;51.664;7.114;2023-12-28T13:43:49;24.40;;;2.77;;
16181;SDS011;8197;51.664;7.114;2023-12-28T13:48:52;27.63;;;3.23;;
16181;SDS011;8197;51.664;7.114;2023-12-28T13:53:56;24.93;;;3.03;;
16181;SDS011;8197;51.664;7.114;2023-12-28T13:58:59;29.80;;;3.87;;
16181;SDS011;8197;51.664;7.114;2023-12-28T14:04:02;39.83;;;3.63;;
16181;SDS011;8197;51.664;7.114;2023-12-28T14:09:06;27.17;;;3.13;;
16181;SDS011;8197;51.664;7.114;2023-12-28T14:14:09;25.93;;;3.93;;
16181;SDS011;8197;51.664;7.114;2023-12-28T14:19:12;32.60;;;5.10;;
16181;SDS011;8197;51.664;7.114;2023-12-28T14:24:17;24.30;;;3.47;;
16181;SDS011;8197;51.664;7.114;2023-12-28T14:29:21;34.63;;;3.90;;
16181;SDS011;8197;51.664;7.114;2023-12-28T14:34:24;22.47;;;3.00;;
16181;SDS011;8197;51.664;7.114;2023-12-28T14:39:30;22.80;;;2.93;;
16181;SDS011;8197;51.664;7.114;2023-12-28T14:44:33;19.07;;;2.83;;
16181;SDS011;8197;51.664;7.114;2023-12-28T14:49:36;22.63;;;2.70;;
16181;SDS011;8197;51.664;7.114;2023-12-28T14:54:40;24.80;;;2.87;;
16181;SDS011;8197;51.664;7.114;2023-12-28T14:59:44;20.87;;;2.47;;
16181;SDS011;8197;51.664;7.114;2023-12-28T15:04:47;26.70;;;2.90;;
16181;SDS011;8197;51.664;7.114;2023-12-28T15:09:52;28.97;;;2.97;;
16181;SDS011;8197;51.664;7.114;2023-12-28T15:14:57;24.07;;;2.50;;
16181;SDS011;8197;51.664;7.114;2023-12-28T15:20:01;25.80;;;2.80;;
16181;SDS011;8197;51.664;7.114;2023-12-28T15:25:06;20.83;;;2.63;;
16181;SDS011;8197;51.664;7.114;2023-12-28T15:30:09;25.80;;;3.43;;
16181;SDS011;8197;51.664;7.114;2023-12-28T15:35:13;19.23;;;2.87;;
16181;SDS011;8197;51.664;7.114;2023-12-28T15:40:19;23.23;;;2.83;;
16181;SDS011;8197;51.664;7.114;2023-12-28T15:45:22;21.73;;;3.03;;
16181;SDS011;8197;51.664;7.114;2023-12-28T15:50:25;26.00;;;2.60;;
16181;SDS011;8197;51.664;7.114;2023-12-28T15:55:30;22.70;;;3.00;;
16181;SDS011;8197;51.664;7.114;2023-12-28T16:00:33;18.13;;;2.47;;
16181;SDS011;8197;51.664;7.114;2023-12-28T16:05:36;20.27;;;2.07;;
16181;SDS011;8197;51.664;7.114;2023-12-28T16:10:43;27.87;;;3.17;;
16181;SDS011;8197;51.664;7.114;2023-12-28T16:15:47;20.40;;;2.60;;
16181;SDS011;8197;51.664;7.114;2023-12-28T16:20:50;28.80;;;2.70;;
16181;SDS011;8197;51.664;7.114;2023-12-28T16:25:55;19.93;;;2.37;;
16181;SDS011;8197;51.664;7.114;2023-12-28T16:30:58;21.37;;;2.53;;
16181;SDS011;8197;51.664;7.114;2023-12-28T16:36:01;25.03;;;3.77;;
16181;SDS011;8197;51.664;7.114;2023-12-28T16:41:05;23.07;;;2.87;;
16181;SDS011;8197;51.664;7.114;2023-12-28T16:46:08;28.13;;;3.93;;
16181;SDS011;8197;51.664;7.114;2023-12-28T16:51:11;30.17;;;3.37;;
16181;SDS011;8197;51.664;7.114;2023-12-28T16:56:18;20.87;;;2.83;;
16181;SDS011;8197;51.664;7.114;2023-12-28T17:01:22;22.30;;;2.87;;
16181;SDS011;8197;51.664;7.114;2023-12-28T17:06:25;28.07;;;2.67;;
16181;SDS011;8197;51.664;7.114;2023-12-28T17:11:30;27.47;;;3.00;;
16181;SDS011;8197;51.664;7.114;2023-12-28T17:16:34;27.50;;;4.00;;
16181;SDS011;8197;51.664;7.114;2023-12-28T17:21:39;25.77;;;4.33;;
16181;SDS011;8197;51.664;7.114;2023-12-28T17:26:45;24.37;;;3.50;;
16181;SDS011;8197;51.664;7.114;2023-12-28T17:31:52;22.03;;;2.97;;
16181;SDS011;8197;51.664;7.114;2023-12-28T17:36:56;27.23;;;3.80;;
16181;SDS011;8197;51.664;7.114;2023-12-28T17:42:01;27.80;;;6.07;;
16181;SDS011;8197;51.664;7.114;2023-12-28T17:47:06;23.60;;;3.00;;
16181;SDS011;8197;51.664;7.114;2023-12-28T17:52:14;24.73;;;3.17;;
16181;SDS011;8197;51.664;7.114;2023-12-28T17:57:21;25.17;;;3.90;;
16181;SDS011;8197;51.664;7.114;2023-12-28T18:02:24;21.70;;;3.27;;
16181;SDS011;8197;51.664;7.114;2023-12-28T18:07:30;22.70;;;2.80;;
16181;SDS011;8197;51.664;7.114;2023-12-28T18:12:34;21.90;;;2.50;;
16181;SDS011;8197;51.664;7.114;2023-12-28T18:17:38;27.30;;;2.93;;
16181;SDS011;8197;51.664;7.114;2023-12-28T18:22:41;18.87;;;3.13;;
16181;SDS011;8197;51.664;7.114;2023-12-28T18:27:45;19.30;;;2.40;;
16181;SDS011;8197;51.664;7.114;2023-12-28T18:32:48;18.87;;;2.10;;
16181;SDS011;8197;51.664;7.114;2023-12-28T18:37:54;22.57;;;3.60;;
16181;SDS011;8197;51.664;7.114;2023-12-28T18:42:58;18.50;;;2.30;;
16181;SDS011;8197;51.664;7.114;2023-12-28T18:48:02;18.70;;;2.40;;
16181;SDS011;8197;51.664;7.114;2023-12-28T18:53:05;19.30;;;2.10;;
16181;SDS011;8197;51.664;7.114;2023-12-28T18:58:11;20.50;;;2.20;;
16181;SDS011;8197;51.664;7.114;2023-12-28T19:03:14;22.43;;;2.33;;
16181;SDS011;8197;51.664;7.114;2023-12-28T19:08:17;17.23;;;2.50;;
16181;SDS011;8197;51.664;7.114;2023-12-28T19:13:21;22.53;;;2.80;;
16181;SDS011;8197;51.664;7.114;2023-12-28T19:18:24;23.60;;;2.90;;
16181;SDS011;8197;51.664;7.114;2023-12-28T19:23:27;19.57;;;2.30;;
16181;SDS011;8197;51.664;7.114;2023-12-28T19:28:31;25.13;;;2.27;;
16181;SDS011;8197;51.664;7.114;2023-12-28T19:33:34;17.10;;;2.20;;
16181;SDS011;8197;51.664;7.114;2023-12-28T19:38:37;19.87;;;3.17;;
16181;SDS011;8197;51.664;7.114;2023-12-28T19:43:42;19.27;;;2.77;;
16181;SDS011;8197;51.664;7.114;2023-12-28T19:48:47;22.37;;;3.13;;
16181;SDS011;8197;51.664;7.114;2023-12-28T19:53:50;18.27;;;2.57;;
16181;SDS011;8197;51.664;7.114;2023-12-28T19:58:54;18.20;;;2.23;;
16181;SDS011;8197;51.664;7.114;2023-12-28T20:03:57;19.47;;;2.10;;
16181;SDS011;8197;51.664;7.114;2023-12-28T20:09:00;24.90;;;2.53;;
16181;SDS011;8197;51.664;7.114;2023-12-28T20:14:06;19.40;;;2.67;;
16181;SDS011;8197;51.664;7.114;2023-12-28T20:19:09;20.40;;;2.60;;
16181;SDS011;8197;51.664;7.114;2023-12-28T20:24:12;21.30;;;2.20;;
16181;SDS011;8197;51.664;7.114;2023-12-28T20:29:16;18.03;;;2.33;;
16181;SDS011;8197;51.664;7.114;2023-12-28T20:34:19;16.57;;;2.67;;
16181;SDS011;8197;51.664;7.114;2023-12-28T20:39:22;18.80;;;2.20;;
16181;SDS011;8197;51.664;7.114;2023-12-28T20:44:27;19.20;;;2.40;;
16181;SDS011;8197;51.664;7.114;2023-12-28T20:49:29;20.90;;;2.10;;
16181;SDS011;8197;51.664;7.114;2023-12-28T20:54:46;26.93;;;2.73;;
16181;SDS011;8197;51.664;7.114;2023-12-28T20:59:51;16.37;;;2.03;;
16181;SDS011;8197;51.664;7.114;2023-12-28T21:04:54;18.87;;;2.10;;
16181;SDS011;8197;51.664;7.114;2023-12-28T21:09:57;23.67;;;2.50;;
16181;SDS011;8197;51.664;7.114;2023-12-28T21:15:01;17.20;;;2.07;;
16181;SDS011;8197;51.664;7.114;2023-12-28T21:20:05;14.77;;;2.07;;
16181;SDS011;8197;51.664;7.114;2023-12-28T21:25:10;14.57;;;1.77;;
16181;SDS011;8197;51.664;7.114;2023-12-28T21:30:15;24.63;;;2.20;;
16181;SDS011;8197;51.664;7.114;2023-12-28T21:35:18;24.50;;;2.23;;
16181;SDS011;8197;51.664;7.114;2023-12-28T21:40:21;20.17;;;2.30;;
16181;SDS011;8197;51.664;7.114;2023-12-28T21:45:29;23.00;;;2.60;;
16181;SDS011;8197;51.664;7.114;2023-12-28T21:50:32;19.50;;;2.20;;
16181;SDS011;8197;51.664;7.114;2023-12-28T21:55:36;17.20;;;2.23;;
16181;SDS011;8197;51.664;7.114;2023-12-28T22:00:40;17.00;;;1.77;;
16181;SDS011;8197;51.664;7.114;2023-12-28T22:05:43;22.07;;;1.87;;
16181;SDS011;8197;51.664;7.114;2023-12-28T22:10:46;16.33;;;2.43;;
16181;SDS011;8197;51.664;7.114;2023-12-28T22:15:57;21.27;;;2.17;;
16181;SDS011;8197;51.664;7.114;2023-12-28T22:21:01;19.20;;;2.20;;
16181;SDS011;8197;51.664;7.114;2023-12-28T22:26:05;20.03;;;1.90;;
16181;SDS011;8197;51.664;7.114;2023-12-28T22:31:10;16.60;;;1.83;;
16181;SDS011;8197;51.664;7.114;2023-12-28T22:36:13;20.37;;;2.70;;
16181;SDS011;8197;51.664;7.114;2023-12-28T22:41:18;18.03;;;2.00;;
16181;SDS011;8197;51.664;7.114;2023-12-28T22:46:24;19.80;;;2.00;;
16181;SDS011;8197;51.664;7.114;2023-12-28T22:51:27;16.37;;;1.60;;
16181;SDS011;8197;51.664;7.114;2023-12-28T22:56:31;20.60;;;2.03;;
16181;SDS011;8197;51.664;7.114;2023-12-28T23:01:36;22.20;;;2.40;;
16181;SDS011;8197;51.664;7.114;2023-12-28T23:06:40;22.40;;;2.53;;
16181;SDS011;8197;51.664;7.114;2023-12-28T23:11:43;23.10;;;2.13;;
16181;SDS011;8197;51.664;7.114;2023-12-28T23:16:47;19.33;;;2.13;;
16181;SDS011;8197;51.664;7.114;2023-12-28T23:21:50;20.57;;;2.63;;
16181;SDS011;8197;51.664;7.114;2023-12-28T23:26:53;22.57;;;2.03;;
16181;SDS011;8197;51.664;7.114;2023-12-28T23:31:57;22.40;;;2.17;;
16181;SDS011;8197;51.664;7.114;2023-12-28T23:37:00;24.53;;;2.40;;
16181;SDS011;8197;51.664;7.114;2023-12-28T23:42:03;20.60;;;2.60;;
16181;SDS011;8197;51.664;7.114;2023-12-28T23:47:08;23.43;;;2.07;;
16181;SDS011;8197;51.664;7.114;2023-12-28T23:52:11;22.50;;;2.60;;
16181;SDS011;8197;51.664;7.114;2023-12-28T23:57:14;20.70;;;1.80;;
